Airfield :







YOU CAN JOIN US ON...

 
LOGIN :

Register | Disclaimer

   EN    FR    IT 

 









Legend :    VFR   Marginal VFR   IFR   Intensive IFR   Very Intensive IFR
Visi :
Ceiling :
>= 8 km
>= 3000ft
5 to 8 km
1000 to 3000 ft
1500m to 5 km
500 to 1000 ft
800 to 1500m
200 to 500 ft
< 800m
< 200 ft
Symbols :   Thunderstorms  Fog  Heavy snow  Heavy precipitations  Wind > 20 kt






- Airport Elevation : 1709 ft
- IATA code : YKL


CYKL - Schefferville

CURRENT METAR :
  • 200101Z AUTO 25016G26KT 6SM HZ FEW090 SCT170 M21/M25 A2956 RMK SLP072

EXPIRED METARs :
  • 200036Z AUTO 24019G26KT 7SM BKN170 M21/M25 A2956 RMK SLP071
  • 200026Z AUTO 24023G30KT 5SM HZ FEW065 BKN160 M21/M24 A2956 RMK SLP072
  • 200000Z AUTO 25014G22KT 9SM SCT032 BKN150 BKN170 M21/M24 A2958 RMK SLP077
  • 192352Z AUTO 25012G21KT 6SM HZ SCT032 BKN150 BKN170 M21/M24 A2958 RMK SLP079
  • 192343Z AUTO 25012G19KT 5SM HZ BKN030 BKN140 M21/M24 A2958 RMK SLP079
  • 192303Z AUTO 23007G15KT 200V280 9SM BKN047 OVC070 M21/M24 A2960 RMK SLP085
  • 192250Z AUTO 23008G16KT 200V260 6SM -SN OVC036 M21/M24 A2960 RMK SLP085
  • 192240Z AUTO 24011G16KT 5SM -SN OVC036 M21/M24 A2959 RMK SLP084

TAF TAF CYKL
Valid from the 19 at 20:00 until the 20 at 08:00 UTC


191938Z 1920/2008 25012G22KT P6SM SCT020 BKN060
TEMPO 1920/2003 5SM -SN BKN020
FM200300 25015G25KT P6SM OVC025
TEMPO 2003/2008 21/2SM -SN OVC015 RMK FCST BASED ON AUTO OBS. NXT FCST BY 200200Z



MET'MAP, your aeronautical weather chart ! - Copyright ORBIFLY December 2007 - Disclaimer

ORBIFLY MET'MAP TEAM :

Programming & Development : Alexandra Zaïnal
Concept & original design : Baudouin d'Aumeries
Assistance for programming : Marc-Olivier Méhu
Technical & hardware support : Manuel Goepfert

Contact : metmap@orbifly.com




SOURCES & CREDITS :

   NOAA